Lander, WY (82520)

6:12 AM MDT on August 25, 2016 (GMT -0600)
Mt. Arder Estates | | Change Station

Elev 5873 ft 42.84 °N, 108.79 °W | Updated 33 seconds ago

Overcast
Overcast
47.7 °F
Feels Like 48 °F
N
2.5
Wind Variable Wind from SW
Gusts 2.5 mph

Today
High -- | Low -- °F
--% Chance of Precip.
Yesterday
High -- | Low -- °F
Precip. -- in
Pressure 30.19 in
Visibility 10.0 miles
Clouds Overcast 5000 ft
Windchill 48 °F
Dew Point 46 °F
Humidity 93%
Rainfall 0.00 in
Snow Depth Not available.
6:32 AM 7:59 PM
Last Quarter, 46% visible
METAR KLND 251153Z AUTO 11003KT 10SM OVC050 09/07 A3032 RMK AO2 SLP221 60000 T00890067 10106 20089 56003
Pressure 30.19 in
Visibility 10.0 miles
Clouds Overcast 5000 ft
Windchill 48 °F
Dew Point 46 °F
Humidity 93%
Rainfall 0.00 in
Snow Depth Not available.
6:32 AM 7:59 PM
Last Quarter, 46% visible
METAR KLND 251153Z AUTO 11003KT 10SM OVC050 09/07 A3032 RMK AO2 SLP221 60000 T00890067 10106 20089 56003

10-Day Weather Forecast

Almanac

Astronomy

Aug. 25, 2016 Rise Set
Actual Time
Civil Twilight
Nautical Twilight
Astronomical Twilight
Moon
Length of Visible Light
Length of Day
Tomorrow will be .
, % of the Moon is Illuminated

Today's Extremes

State Highs State Lows

Community

WunderPhotos

Upload Photos

1,934,833 photos uploaded!

WunderBlog® & News

Nearby

Air Quality

  Air Quality AQ Index Pollutant
Not available.

Snow Depth

Station Depth Elevation

Earthquake Activity

City Distance Mag. Time & Date
Minimum magnitude displayed is 2.5.

Coastal Water Temperatures

Place Temperature

Stations

Nearby Weather Stations

Station Location Temp. Windchill Dew Point Humidity Wind Precip. Elev Updated Type
                   

Watches & Warnings

There are currently no watches in effect.